Terminal Aerodrome Forecast
Issued by NWS Sioux Falls, SD

Home | Current Version | Previous Version | Graphics & Text | Print | Product List | Glossary On
Versions: 1 2 3 4 5 6 7 8 9 10 11 12 13 14 15
698
FTUS43 KFSD 300523
TAFFSD
TAF
KFSD 300523Z 3006/0106 08006KT P6SM BKN025 OVC200
      TEMPO 3006/3008 SCT025
     FM300900 07011KT P6SM BKN020
     FM301300 07015G24KT P6SM OVC012
     FM301600 06020G29KT 5SM -RA OVC010
     FM010100 04012KT 4SM -RA OVC020=

USA.gov is the U.S. government's official web portal to all federal, state and local government web resources and services.